Time;durP1;ratioP1;P1;durP2;ratioP2;P2;SDS_P1;SDS_P2;PMS_P1;PMS_P2;Temp;Humidity;BMP_temperature;BMP_pressure;BME280_temperature;BME280_humidity;BME280_pressure;Samples;Min_cycle;Max_cycle;Signal;HPM_P1;HPM_P2
2021/06/21 00:00:54;;;;;;;8.13;5.32;;;25.90;72.30;;;;;;5032686;28;20055;-58
2021/06/21 00:03:37;;;;;;;9.48;5.88;;;25.70;73.70;;;;;;5034184;28;20040;-58
2021/06/21 00:06:21;;;;;;;;;;;25.70;74.50;;;;;;5032849;28;20057;-59
2021/06/21 00:09:06;;;;;;;8.10;6.10;;;25.70;75.80;;;;;;5032787;28;19916;-59
2021/06/21 00:11:50;;;;;;;9.10;6.57;;;25.80;76.40;;;;;;5033037;28;20112;-59
2021/06/21 00:14:34;;;;;;;8.07;5.90;;;25.80;76.70;;;;;;5031798;28;20044;-58
2021/06/21 00:17:18;;;;;;;12.00;6.65;;;25.70;77.70;;;;;;5052119;28;20040;-59
2021/06/21 00:20:04;;;;;;;7.88;6.32;;;25.60;76.90;;;;;;5052687;28;20095;-57
2021/06/21 00:22:49;;;;;;;10.63;6.35;;;25.30;78.90;;;;;;5037463;28;20407;-61
2021/06/21 00:25:34;;;;;;;13.52;7.03;;;24.90;82.20;;;;;;5051848;28;20106;-63
2021/06/21 00:28:18;;;;;;;10.35;7.10;;;24.10;87.60;;;;;;5042950;28;20044;-61
2021/06/21 00:31:02;;;;;;;16.58;8.02;;;23.30;90.70;;;;;;5032849;28;20106;-64
2021/06/21 00:33:46;;;;;;;14.30;7.22;;;22.60;92.40;;;;;;5032696;28;20045;-63
2021/06/21 00:36:31;;;;;;;11.88;7.18;;;22.20;93.60;;;;;;5030530;28;20159;-62
2021/06/21 00:39:15;;;;;;;;;;;22.00;94.20;;;;;;5032583;28;20087;-63
2021/06/21 00:41:59;;;;;;;10.43;5.28;;;21.90;94.50;;;;;;5032660;28;20319;-64
2021/06/21 00:44:43;;;;;;;10.13;5.00;;;21.80;94.80;;;;;;5031954;28;20091;-64
2021/06/21 00:47:28;;;;;;;15.88;4.85;;;21.80;95.10;;;;;;5016867;28;20040;-63
2021/06/21 00:50:12;;;;;;;12.85;5.05;;;21.80;95.10;;;;;;5016761;28;20040;-64
2021/06/21 00:52:58;;;;;;;;;;;22.00;94.80;;;;;;5032478;28;20052;-65
2021/06/21 00:55:42;;;;;;;11.45;4.28;;;22.10;94.30;;;;;;5031566;28;19916;-64
2021/06/21 00:58:26;;;;;;;;;;;22.20;94.10;;;;;;5031933;28;20204;-65
2021/06/21 01:01:10;;;;;;;10.68;4.60;;;22.20;94.60;;;;;;5032154;28;20388;-65
2021/06/21 01:03:56;;;;;;;10.82;4.70;;;22.30;94.30;;;;;;5032223;28;20591;-62
2021/06/21 01:06:40;;;;;;;9.85;4.40;;;22.40;94.60;;;;;;5031971;28;20036;-61
2021/06/21 01:09:24;;;;;;;9.35;4.22;;;22.50;94.20;;;;;;5017379;28;20048;-63
2021/06/21 01:12:20;;;;;;;6.80;4.30;;;22.80;94.10;;;;;;5032390;28;20159;-61
2021/06/21 01:15:08;;;;;;;12.73;6.80;;;23.10;93.80;;;;;;5051801;28;20442;-63
2021/06/21 01:18:04;;;;;;;13.68;9.15;;;23.30;93.60;;;;;;5051998;28;20087;-64
2021/06/21 01:21:07;;;;;;;13.75;10.63;;;23.50;93.10;;;;;;5051632;28;20024;-64
2021/06/21 01:24:38;;;;;;;17.85;10.52;;;23.70;92.60;;;;;;5051829;28;20124;-62
2021/06/21 01:27:45;;;;;;;11.65;4.97;;;23.80;92.10;;;;;;5028127;28;20072;-64
2021/06/21 01:30:51;;;;;;;10.57;4.53;;;23.40;92.60;;;;;;5031653;28;20132;-64
2021/06/21 01:33:36;;;;;;;9.02;4.57;;;23.20;93.00;;;;;;5032017;28;20564;-64
2021/06/21 01:36:23;;;;;;;9.65;3.53;;;23.10;92.90;;;;;;5031255;28;20036;-64
2021/06/21 01:39:07;;;;;;;9.55;4.57;;;23.20;92.70;;;;;;5032005;28;20037;-64
2021/06/21 01:41:56;;;;;;;7.18;3.95;;;23.30;92.80;;;;;;5031803;28;20137;-63
2021/06/21 01:44:44;;;;;;;6.47;3.67;;;23.50;92.70;;;;;;5031537;28;20076;-66
2021/06/21 01:47:30;;;;;;;7.10;5.32;;;23.60;92.40;;;;;;5030390;28;20044;-62
2021/06/21 01:50:20;;;;;;;8.77;6.47;;;23.60;92.40;;;;;;5032110;28;20029;-62
2021/06/21 01:53:10;;;;;;;8.35;7.40;;;23.70;92.40;;;;;;5031659;28;20068;-61
2021/06/21 01:56:02;;;;;;;13.00;11.70;;;23.70;92.30;;;;;;5041205;28;20444;-61
2021/06/21 01:58:48;;;;;;;11.27;7.93;;;23.90;92.30;;;;;;5031405;28;20109;-60
2021/06/21 02:01:34;;;;;;;8.70;6.53;;;23.80;92.30;;;;;;5032163;28;20036;-60
2021/06/21 02:04:18;;;;;;;8.77;5.28;;;23.70;92.20;;;;;;5035302;28;20032;-59
2021/06/21 02:07:03;;;;;;;7.53;4.65;;;23.50;92.30;;;;;;5034773;28;20091;-60
2021/06/21 02:09:48;;;;;;;8.98;4.93;;;23.30;92.40;;;;;;5035254;28;20040;-59
2021/06/21 02:12:33;;;;;;;6.43;4.30;;;23.20;92.50;;;;;;5034892;28;20032;-59
2021/06/21 02:15:18;;;;;;;6.13;4.35;;;23.10;92.70;;;;;;5034854;28;20041;-59
2021/06/21 02:18:03;;;;;;;6.63;4.45;;;23.00;92.90;;;;;;5035489;28;20048;-57
2021/06/21 02:20:50;;;;;;;6.43;4.60;;;23.00;93.10;;;;;;5033882;28;20092;-59
2021/06/21 02:23:37;;;;;;;6.18;3.88;;;23.10;93.10;;;;;;5034630;28;20028;-57
2021/06/21 02:26:26;;;;;;;6.90;3.85;;;23.10;93.00;;;;;;5034408;28;20432;-58
2021/06/21 02:29:11;;;;;;;6.18;4.03;;;23.20;92.60;;;;;;5034611;28;20039;-58
2021/06/21 02:31:56;;;;;;;7.45;4.32;;;23.30;92.70;;;;;;5034557;28;20066;-58
2021/06/21 02:34:41;;;;;;;8.73;4.80;;;23.10;92.80;;;;;;5034580;28;20028;-60
2021/06/21 02:37:25;;;;;;;9.73;7.30;;;23.00;93.30;;;;;;5034428;28;20068;-59
2021/06/21 02:40:11;;;;;;;7.93;4.35;;;22.90;93.40;;;;;;5034793;28;20096;-58
2021/06/21 02:42:55;;;;;;;7.60;5.65;;;22.80;93.40;;;;;;5032847;28;20052;-55
2021/06/21 02:45:39;;;;;;;10.23;5.85;;;23.00;93.40;;;;;;5033161;28;20380;-59
2021/06/21 02:48:24;;;;;;;6.57;5.25;;;23.10;93.30;;;;;;5034059;28;20048;-60
2021/06/21 02:51:15;;;;;;;5.18;4.35;;;23.30;93.20;;;;;;5034326;28;20072;-57
2021/06/21 02:54:05;;;;;;;6.35;4.35;;;23.30;93.10;;;;;;5013645;28;20136;-56
2021/06/21 02:57:14;;;;;;;7.25;4.82;;;23.40;92.80;;;;;;5031618;28;20040;-58
2021/06/21 02:59:59;;;;;;;8.00;4.75;;;23.50;92.50;;;;;;5028691;28;20052;-55
2021/06/21 03:02:45;;;;;;;7.00;3.85;;;23.30;92.50;;;;;;5033516;28;20080;-58
2021/06/21 03:05:30;;;;;;;7.50;4.30;;;23.20;92.70;;;;;;5032888;28;20124;-59
2021/06/21 03:08:14;;;;;;;4.53;4.00;;;23.30;92.50;;;;;;5034430;28;20113;-58
2021/06/21 03:11:00;;;;;;;13.30;4.10;;;23.30;92.70;;;;;;5033144;28;20137;-56
2021/06/21 03:13:49;;;;;;;7.50;4.45;;;23.30;92.50;;;;;;5032765;28;20032;-57
2021/06/21 03:16:34;;;;;;;7.13;4.40;;;23.30;92.60;;;;;;5033872;28;20084;-57
2021/06/21 03:19:19;;;;;;;6.40;3.92;;;23.30;92.60;;;;;;5034377;28;20025;-59
2021/06/21 03:22:04;;;;;;;7.45;4.78;;;23.40;92.60;;;;;;5033689;28;20028;-56
2021/06/21 03:24:55;;;;;;;7.47;4.50;;;23.50;92.60;;;;;;5033603;28;20041;-59
2021/06/21 03:27:40;;;;;;;6.72;4.15;;;23.50;92.40;;;;;;5034463;28;20140;-58
2021/06/21 03:30:25;;;;;;;6.43;4.15;;;23.60;91.90;;;;;;5033631;28;20040;-58
2021/06/21 03:33:10;;;;;;;6.45;4.15;;;23.40;92.30;;;;;;5022203;28;20036;-58
2021/06/21 03:35:54;;;;;;;7.15;4.45;;;23.30;92.60;;;;;;5032952;28;20101;-57
2021/06/21 03:38:39;;;;;;;5.95;4.20;;;22.90;93.30;;;;;;5021128;28;20109;-57
2021/06/21 03:41:23;;;;;;;9.27;4.72;;;22.80;93.60;;;;;;5033564;28;20083;-55
2021/06/21 03:44:07;;;;;;;6.53;4.50;;;22.50;94.30;;;;;;5032485;28;20052;-59
2021/06/21 03:46:51;;;;;;;8.13;5.20;;;22.70;94.10;;;;;;5037450;28;20166;-59
2021/06/21 03:49:36;;;;;;;6.63;5.20;;;22.50;94.30;;;;;;5045995;28;20087;-57
2021/06/21 03:52:21;;;;;;;9.60;5.15;;;22.30;94.60;;;;;;5022513;28;20108;-56
2021/06/21 03:55:06;;;;;;;9.73;5.30;;;22.30;94.80;;;;;;5033060;28;20065;-59
2021/06/21 03:57:51;;;;;;;7.78;5.07;;;22.20;94.80;;;;;;5032564;28;20056;-56
2021/06/21 04:00:36;;;;;;;7.57;5.32;;;22.20;94.90;;;;;;5018203;28;20089;-59
2021/06/21 04:03:23;;;;;;;9.38;5.43;;;22.20;94.70;;;;;;5029289;28;20028;-57
2021/06/21 04:06:08;;;;;;;7.13;5.57;;;22.20;94.90;;;;;;5033075;28;20044;-60
2021/06/21 04:08:52;;;;;;;11.55;6.38;;;22.20;94.80;;;;;;5032867;28;20083;-58
2021/06/21 04:11:37;;;;;;;11.30;5.45;;;22.10;94.80;;;;;;5033121;28;20464;-58
2021/06/21 04:14:21;;;;;;;11.43;5.97;;;22.20;94.50;;;;;;5033236;28;20036;-58
2021/06/21 04:17:05;;;;;;;6.80;5.60;;;22.10;94.80;;;;;;5032095;28;20095;-56
2021/06/21 04:19:50;;;;;;;9.20;6.30;;;22.20;94.80;;;;;;5033185;28;20037;-59
2021/06/21 04:22:35;;;;;;;10.45;6.90;;;22.10;94.90;;;;;;5032652;28;20024;-58
2021/06/21 04:25:20;;;;;;;10.82;5.90;;;22.00;95.00;;;;;;5032310;28;20146;-58
2021/06/21 04:28:07;;;;;;;9.77;6.40;;;22.00;95.30;;;;;;5031962;28;20052;-57
2021/06/21 04:30:51;;;;;;;10.23;6.82;;;22.00;95.20;;;;;;5032553;28;20619;-56
2021/06/21 04:33:35;;;;;;;12.75;6.63;;;22.10;94.80;;;;;;5032698;28;20044;-58
2021/06/21 04:36:19;;;;;;;13.98;6.70;;;22.10;94.70;;;;;;5030990;28;20060;-57
2021/06/21 04:39:04;;;;;;;12.10;6.57;;;22.20;94.80;;;;;;5032223;28;20032;-55
2021/06/21 04:41:49;;;;;;;10.18;6.75;;;22.20;94.70;;;;;;5032146;28;20151;-58
2021/06/21 04:44:33;;;;;;;14.32;6.70;;;22.10;94.50;;;;;;5031984;28;20049;-57
2021/06/21 04:47:19;;;;;;;13.88;6.90;;;22.00;94.40;;;;;;5026037;28;20527;-59
2021/06/21 04:50:08;;;;;;;12.23;6.13;;;22.00;94.80;;;;;;5028376;28;20063;-58
2021/06/21 04:52:52;;;;;;;12.05;6.75;;;22.00;94.70;;;;;;5026135;28;20113;-58
2021/06/21 04:55:36;;;;;;;10.23;5.80;;;22.10;94.60;;;;;;5031406;28;20095;-58
2021/06/21 04:58:20;;;;;;;8.88;5.18;;;22.20;94.40;;;;;;5032211;28;20032;-59
2021/06/21 05:01:06;;;;;;;11.40;5.45;;;22.30;93.90;;;;;;5031522;28;20052;-57
2021/06/21 05:03:51;;;;;;;11.57;4.97;;;22.30;94.00;;;;;;5032140;28;20040;-58
2021/06/21 05:06:36;;;;;;;9.77;4.88;;;22.10;94.00;;;;;;5032236;28;20036;-59
2021/06/21 05:09:21;;;;;;;14.32;5.60;;;22.10;94.30;;;;;;5031966;28;20432;-59
2021/06/21 05:12:05;;;;;;;7.57;5.00;;;22.20;94.10;;;;;;5030798;28;20449;-57
2021/06/21 05:14:50;;;;;;;9.23;5.22;;;22.20;94.50;;;;;;5031388;28;20036;-59
2021/06/21 05:17:34;;;;;;;8.20;4.70;;;22.30;94.30;;;;;;5032039;28;20036;-59
2021/06/21 05:20:18;;;;;;;7.93;5.38;;;22.40;94.00;;;;;;5031845;28;20080;-58
2021/06/21 05:23:02;;;;;;;9.43;5.18;;;22.40;94.20;;;;;;5031673;28;20563;-58
2021/06/21 05:25:46;;;;;;;7.75;5.07;;;22.40;94.00;;;;;;5030876;28;20060;-57
2021/06/21 05:28:30;;;;;;;9.00;4.93;;;22.40;94.40;;;;;;5032307;28;20045;-59
2021/06/21 05:31:14;;;;;;;8.15;4.72;;;22.40;94.10;;;;;;5031601;28;20049;-55
2021/06/21 05:33:58;;;;;;;11.63;4.80;;;22.40;94.00;;;;;;5031736;28;20125;-56
2021/06/21 05:36:43;;;;;;;8.23;4.82;;;22.50;94.00;;;;;;5032191;28;20036;-58
2021/06/21 05:39:27;;;;;;;10.98;4.93;;;22.50;94.00;;;;;;5035585;28;20045;-59
2021/06/21 05:42:11;;;;;;;9.80;5.40;;;22.50;94.30;;;;;;5023246;28;20028;-56
2021/06/21 05:44:55;;;;;;;8.10;4.78;;;22.40;94.40;;;;;;5035203;28;20055;-59
2021/06/21 05:47:39;;;;;;;6.63;5.45;;;22.50;94.00;;;;;;5034626;28;20095;-57
2021/06/21 05:50:23;;;;;;;7.72;5.15;;;22.50;94.10;;;;;;5035105;28;20076;-59
2021/06/21 05:53:07;;;;;;;13.85;5.43;;;22.40;94.30;;;;;;5035009;28;20087;-59
2021/06/21 05:55:51;;;;;;;9.30;5.10;;;22.40;94.30;;;;;;5034837;28;20045;-59
2021/06/21 05:58:35;;;;;;;7.70;5.25;;;22.40;94.30;;;;;;5036523;28;20025;-60
2021/06/21 06:01:19;;;;;;;9.07;5.25;;;22.40;94.50;;;;;;5034120;28;20044;-59
2021/06/21 06:04:03;;;;;;;7.53;5.43;;;22.40;94.20;;;;;;5035113;28;20056;-59
2021/06/21 06:06:47;;;;;;;10.50;6.25;;;22.40;94.30;;;;;;5035258;28;20052;-58
2021/06/21 06:09:31;;;;;;;8.80;5.72;;;22.50;94.10;;;;;;5036137;28;20076;-59
2021/06/21 06:12:16;;;;;;;12.25;6.50;;;22.60;94.20;;;;;;5035482;28;20036;-58
2021/06/21 06:15:01;;;;;;;11.23;6.25;;;22.70;94.00;;;;;;5034659;28;20123;-57
2021/06/21 06:17:45;;;;;;;;;;;22.60;94.10;;;;;;5053409;28;20105;-59
2021/06/21 06:20:29;;;;;;;8.05;5.60;;;22.60;94.10;;;;;;5054997;28;19915;-59
2021/06/21 06:23:13;;;;;;;10.90;5.90;;;22.50;94.40;;;;;;5022236;28;20040;-58
2021/06/21 06:25:57;;;;;;;;;;;22.80;94.10;;;;;;5029413;28;20380;-57
2021/06/21 06:28:42;;;;;;;10.18;6.50;;;22.90;93.80;;;;;;5028619;28;19920;-58
2021/06/21 06:31:26;;;;;;;9.38;6.32;;;22.90;93.50;;;;;;5038009;28;20122;-57
2021/06/21 06:34:10;;;;;;;7.43;6.22;;;22.80;93.70;;;;;;5020824;28;20099;-59
2021/06/21 06:36:55;;;;;;;10.00;6.43;;;22.90;93.60;;;;;;5015005;28;20103;-57
2021/06/21 06:39:39;;;;;;;;;;;23.00;93.30;;;;;;5020752;28;20037;-59
2021/06/21 06:42:23;;;;;;;9.95;6.68;;;23.10;93.20;;;;;;5033854;28;19924;-57
2021/06/21 06:45:08;;;;;;;10.32;6.20;;;23.10;92.90;;;;;;5034619;28;20048;-59
2021/06/21 06:47:53;;;;;;;9.75;7.03;;;23.10;92.70;;;;;;5032501;28;20080;-61
2021/06/21 06:50:37;;;;;;;9.25;7.38;;;23.00;92.90;;;;;;5034016;28;20455;-59
2021/06/21 06:53:35;;;;;;;18.20;6.97;;;23.00;93.00;;;;;;5034604;28;20168;-59
2021/06/21 06:59:22;;;;;;;14.35;7.60;;;23.00;93.00;;;;;;5034447;28;20092;-59
2021/06/21 07:02:12;;;;;;;12.10;8.57;;;23.30;92.90;;;;;;5034223;28;20473;-57
2021/06/21 07:04:56;;;;;;;13.90;6.70;;;23.30;92.90;;;;;;5032894;28;20408;-55
2021/06/21 07:07:41;;;;;;;12.75;6.85;;;23.20;92.70;;;;;;5032376;28;20619;-57
2021/06/21 07:10:25;;;;;;;;;;;23.10;92.20;;;;;;5035089;28;20033;-55
2021/06/21 07:13:09;;;;;;;14.63;7.03;;;23.10;92.30;;;;;;5032071;28;20039;-58
2021/06/21 07:15:53;;;;;;;16.75;6.93;;;23.00;92.20;;;;;;5033812;28;20076;-58
2021/06/21 07:18:37;;;;;;;11.88;6.75;;;23.00;92.40;;;;;;5028536;28;20097;-58
2021/06/21 07:21:22;;;;;;;10.82;6.25;;;23.10;92.20;;;;;;5031301;28;20040;-57
2021/06/21 07:24:07;;;;;;;15.05;6.25;;;23.20;91.80;;;;;;5033771;28;20603;-57
2021/06/21 07:26:51;;;;;;;11.45;6.50;;;23.10;91.70;;;;;;5038343;28;20127;-55
2021/06/21 07:29:35;;;;;;;12.30;6.78;;;23.30;91.80;;;;;;5033045;28;20040;-57
2021/06/21 07:32:20;;;;;;;9.35;5.75;;;23.40;91.60;;;;;;5032115;28;20408;-59
2021/06/21 07:35:05;;;;;;;11.45;6.05;;;23.60;91.30;;;;;;5031952;28;20037;-58
2021/06/21 07:37:49;;;;;;;13.77;5.80;;;23.70;91.10;;;;;;5032827;28;20412;-58
2021/06/21 07:40:36;;;;;;;13.80;6.43;;;23.80;90.90;;;;;;5031761;28;20448;-57
2021/06/21 07:43:20;;;;;;;11.45;7.32;;;23.80;90.80;;;;;;5033386;28;20052;-58
2021/06/21 07:46:05;;;;;;;12.07;6.03;;;24.00;90.30;;;;;;5033378;28;20029;-57
2021/06/21 07:48:49;;;;;;;13.63;6.03;;;24.10;90.00;;;;;;5052409;28;20120;-60
2021/06/21 07:51:33;;;;;;;10.02;5.70;;;24.20;90.30;;;;;;5029991;28;20164;-57
2021/06/21 07:54:19;;;;;;;10.43;6.50;;;24.20;89.30;;;;;;5012556;28;20045;-58
2021/06/21 07:57:04;;;;;;;13.90;5.75;;;24.30;89.80;;;;;;5033025;28;20043;-59
2021/06/21 07:59:48;;;;;;;12.60;5.85;;;24.20;89.40;;;;;;5036075;28;20447;-58
2021/06/21 08:02:32;;;;;;;11.60;5.65;;;24.10;88.70;;;;;;5032955;28;20551;-59
2021/06/21 08:05:16;;;;;;;15.93;6.00;;;24.10;88.10;;;;;;5032545;28;20512;-58
2021/06/21 08:08:00;;;;;;;10.15;5.43;;;24.20;88.00;;;;;;5032883;28;20033;-56
2021/06/21 08:10:45;;;;;;;17.83;5.80;;;24.20;86.80;;;;;;5032606;28;21782;-58
2021/06/21 08:13:29;;;;;;;;;;;24.20;87.70;;;;;;5033561;28;20111;-59
2021/06/21 08:16:13;;;;;;;11.90;4.93;;;24.30;88.70;;;;;;5032524;28;19983;-59
2021/06/21 08:18:58;;;;;;;15.75;7.10;;;24.30;88.00;;;;;;5053043;28;20040;-59
2021/06/21 08:21:42;;;;;;;13.48;5.82;;;24.50;87.50;;;;;;5052331;28;20051;-57
2021/06/21 08:24:27;;;;;;;12.48;5.07;;;24.50;88.70;;;;;;5052849;28;20056;-57
2021/06/21 08:27:11;;;;;;;12.15;5.55;;;24.60;86.60;;;;;;5029422;28;20041;-60
2021/06/21 08:29:56;;;;;;;15.32;5.70;;;24.70;86.80;;;;;;5032814;28;20409;-58
2021/06/21 08:32:41;;;;;;;11.20;5.45;;;24.70;85.50;;;;;;5019381;28;20056;-58
2021/06/21 08:35:26;;;;;;;13.02;5.35;;;24.60;86.10;;;;;;5031705;28;20076;-57
2021/06/21 08:38:10;;;;;;;12.60;5.22;;;24.60;85.70;;;;;;5032689;28;20037;-59
2021/06/21 08:40:54;;;;;;;;;;;24.70;86.90;;;;;;5031569;28;20093;-57
2021/06/21 08:43:40;;;;;;;16.02;6.03;;;25.00;86.20;;;;;;5032762;28;19927;-55
2021/06/21 08:46:24;;;;;;;11.48;5.35;;;25.00;85.60;;;;;;5012892;28;20049;-58
2021/06/21 08:49:11;;;;;;;14.00;6.65;;;25.10;85.10;;;;;;5032207;28;20044;-56
2021/06/21 08:51:56;;;;;;;12.10;5.97;;;25.10;85.50;;;;;;5032455;28;20515;-55
2021/06/21 08:54:41;;;;;;;14.90;5.85;;;25.00;86.00;;;;;;5032342;28;20048;-56
2021/06/21 08:57:25;;;;;;;17.65;6.88;;;24.90;86.60;;;;;;5031431;28;20499;-55
2021/06/21 09:00:12;;;;;;;11.27;5.40;;;25.00;86.00;;;;;;5031225;28;20045;-55
2021/06/21 09:03:00;;;;;;;10.45;5.70;;;25.00;85.50;;;;;;5032328;28;20039;-59
2021/06/21 09:05:44;;;;;;;11.90;5.43;;;25.10;85.00;;;;;;5032531;28;20109;-57
2021/06/21 09:08:49;;;;;;;13.77;5.45;;;25.10;85.30;;;;;;5032247;28;20169;-56
2021/06/21 09:11:46;;;;;;;11.80;5.07;;;25.20;84.80;;;;;;5032920;28;20033;-57
2021/06/21 09:14:32;;;;;;;11.82;5.07;;;25.40;83.50;;;;;;5025652;28;20327;-56
2021/06/21 09:17:21;;;;;;;13.50;5.55;;;25.30;82.40;;;;;;5036086;28;20045;-57
2021/06/21 09:20:10;;;;;;;11.82;5.10;;;25.40;81.50;;;;;;5035814;28;20051;-57
2021/06/21 09:23:01;;;;;;;12.30;4.70;;;25.40;80.10;;;;;;5036209;28;20036;-56
2021/06/21 09:25:45;;;;;;;13.25;4.25;;;25.30;78.40;;;;;;5035427;28;20503;-56
2021/06/21 09:28:35;;;;;;;15.40;4.80;;;25.30;79.70;;;;;;5033439;28;20091;-54
2021/06/21 09:31:22;;;;;;;11.57;4.03;;;25.40;78.40;;;;;;5032760;28;20048;-56
2021/06/21 09:34:18;;;;;;;17.17;4.72;;;25.30;76.80;;;;;;5035243;28;20507;-57
2021/06/21 09:37:20;;;;;;;12.40;4.40;;;25.30;76.90;;;;;;5036505;28;20032;-60
2021/06/21 09:40:05;;;;;;;11.45;4.55;;;25.30;77.20;;;;;;5036585;28;20045;-57
2021/06/21 09:42:49;;;;;;;;;;;25.30;77.60;;;;;;5035147;28;20039;-59
2021/06/21 09:45:33;;;;;;;14.02;4.60;;;25.50;77.40;;;;;;5035092;28;19936;-57
2021/06/21 09:48:38;;;;;;;9.68;4.85;;;25.50;77.10;;;;;;5034400;28;20045;-56
2021/06/21 09:51:30;;;;;;;10.77;4.18;;;25.50;77.80;;;;;;5033793;28;20565;-58
2021/06/21 09:54:20;;;;;;;13.40;4.30;;;25.60;77.60;;;;;;5034359;28;20137;-57
2021/06/21 09:57:14;;;;;;;12.70;5.15;;;25.70;76.50;;;;;;5035302;28;20044;-58
2021/06/21 09:59:58;;;;;;;9.95;4.72;;;25.60;77.70;;;;;;5033537;28;20440;-57
2021/06/21 10:02:43;;;;;;;10.27;4.45;;;25.60;77.30;;;;;;5033913;28;20068;-57
2021/06/21 10:05:27;;;;;;;10.93;4.63;;;25.70;76.80;;;;;;5033635;28;20043;-58
2021/06/21 10:08:14;;;;;;;11.02;4.28;;;25.70;76.90;;;;;;5034957;28;20079;-57
2021/06/21 10:11:06;;;;;;;11.80;4.60;;;25.80;76.00;;;;;;5033738;28;20049;-60
2021/06/21 10:13:51;;;;;;;16.98;5.07;;;26.00;76.90;;;;;;5033596;28;20044;-56
2021/06/21 10:16:36;;;;;;;10.35;4.20;;;26.10;77.40;;;;;;5033037;28;20045;-60
2021/06/21 10:19:21;;;;;;;11.13;4.60;;;26.30;77.40;;;;;;5030746;28;20092;-57
2021/06/21 10:22:07;;;;;;;13.32;4.95;;;26.50;75.20;;;;;;5034661;28;20690;-59
2021/06/21 10:24:56;;;;;;;10.85;4.47;;;26.50;73.50;;;;;;5032717;28;20059;-59
2021/06/21 10:27:44;;;;;;;8.90;4.32;;;26.50;74.70;;;;;;5030151;28;78452;-58
2021/06/21 10:30:29;;;;;;;11.43;4.10;;;26.40;73.60;;;;;;5033929;28;20045;-59
2021/06/21 10:33:14;;;;;;;8.77;4.53;;;26.30;74.60;;;;;;5033346;28;20096;-58
2021/06/21 10:35:59;;;;;;;12.32;4.97;;;26.20;75.30;;;;;;5034075;28;20987;-60
2021/06/21 10:38:44;;;;;;;11.55;4.53;;;26.30;75.50;;;;;;5022913;28;20495;-56
2021/06/21 10:41:28;;;;;;;10.38;4.50;;;26.60;75.40;;;;;;5034624;28;20071;-58
2021/06/21 10:44:41;;;;;;;9.30;4.43;;;26.70;75.30;;;;;;5034131;28;20084;-58
2021/06/21 10:47:38;;;;;;;8.90;3.90;;;26.80;74.60;;;;;;5023572;28;20044;-59
2021/06/21 10:50:24;;;;;;;10.05;4.57;;;26.70;73.70;;;;;;5028792;28;20045;-60
2021/06/21 10:53:09;;;;;;;14.45;4.45;;;26.60;74.20;;;;;;5029196;28;20788;-59
2021/06/21 10:55:53;;;;;;;7.00;4.10;;;26.40;74.70;;;;;;5029559;28;20111;-56
2021/06/21 10:58:40;;;;;;;7.93;4.40;;;26.30;75.50;;;;;;5033778;28;20069;-58
2021/06/21 11:01:24;;;;;;;8.85;4.22;;;26.30;76.70;;;;;;5034096;28;20084;-58
2021/06/21 11:04:08;;;;;;;9.65;4.55;;;26.50;77.20;;;;;;5032082;28;20116;-57
2021/06/21 11:07:08;;;;;;;10.40;4.70;;;26.70;76.70;;;;;;5033598;28;20063;-58
2021/06/21 11:09:55;;;;;;;9.68;4.38;;;26.70;75.50;;;;;;5033995;28;20028;-59
2021/06/21 11:12:41;;;;;;;10.95;5.00;;;26.50;74.30;;;;;;5024771;28;20443;-59
2021/06/21 11:15:26;;;;;;;11.75;4.85;;;26.60;76.20;;;;;;5033311;28;20392;-57
2021/06/21 11:18:22;;;;;;;13.02;6.03;;;26.60;76.40;;;;;;5033887;28;20402;-58
2021/06/21 11:21:19;;;;;;;8.80;4.40;;;26.60;76.10;;;;;;5033575;28;20088;-56
2021/06/21 11:24:03;;;;;;;11.30;4.72;;;26.90;74.70;;;;;;5016790;28;20032;-59
2021/06/21 11:27:02;;;;;;;10.45;4.53;;;26.90;74.10;;;;;;5031021;28;20059;-59
2021/06/21 11:29:49;;;;;;;11.68;4.38;;;26.90;74.80;;;;;;5033698;28;20519;-53
2021/06/21 11:32:53;;;;;;;8.27;3.90;;;26.90;74.10;;;;;;5033721;28;20036;-59
2021/06/21 11:35:59;;;;;;;11.95;4.07;;;27.00;73.80;;;;;;5031580;28;20044;-56
2021/06/21 11:38:43;;;;;;;13.20;4.28;;;27.00;74.80;;;;;;5020812;28;20084;-58
2021/06/21 11:41:28;;;;;;;9.90;4.13;;;26.90;74.10;;;;;;5032483;28;20451;-59
2021/06/21 11:44:12;;;;;;;8.45;3.53;;;27.10;74.50;;;;;;5034421;28;20165;-54
2021/06/21 11:46:56;;;;;;;9.27;4.45;;;27.10;72.50;;;;;;5032879;28;20041;-58
2021/06/21 11:49:45;;;;;;;8.63;3.65;;;27.00;72.10;;;;;;5033014;28;20041;-61
2021/06/21 11:52:31;;;;;;;9.13;4.00;;;27.10;71.60;;;;;;5033413;28;20040;-60
2021/06/21 11:55:40;;;;;;;7.18;3.55;;;27.10;70.60;;;;;;5034232;28;20040;-58
2021/06/21 11:58:32;;;;;;;8.98;3.58;;;27.00;70.50;;;;;;5027208;28;20049;-60
2021/06/21 12:01:23;;;;;;;6.75;3.20;;;26.90;70.20;;;;;;5031348;28;20124;-58
2021/06/21 12:04:08;;;;;;;8.70;3.55;;;26.80;70.50;;;;;;5031330;28;20060;-60
2021/06/21 12:06:53;;;;;;;7.22;3.60;;;26.80;69.90;;;;;;5032062;28;20040;-61
2021/06/21 12:09:54;;;;;;;6.88;3.28;;;26.90;69.30;;;;;;5032775;28;20072;-57
2021/06/21 12:12:40;;;;;;;4.50;3.45;;;27.00;69.10;;;;;;5041612;28;20090;-56
2021/06/21 12:15:33;;;;;;;6.93;3.45;;;27.20;69.10;;;;;;5019942;28;20119;-59
2021/06/21 12:18:25;;;;;;;6.47;3.40;;;27.50;68.80;;;;;;5049095;28;20036;-56
2021/06/21 12:21:09;;;;;;;10.07;3.83;;;27.50;69.50;;;;;;5024636;28;20033;-60
2021/06/21 12:23:53;;;;;;;7.93;3.72;;;27.40;69.10;;;;;;5032404;28;20043;-61
2021/06/21 12:26:38;;;;;;;6.10;3.47;;;27.50;68.90;;;;;;5032060;28;20111;-56
2021/06/21 12:29:28;;;;;;;8.77;3.40;;;27.50;68.40;;;;;;5031579;28;20092;-58
2021/06/21 12:32:15;;;;;;;5.93;3.53;;;27.70;69.20;;;;;;5032999;28;20128;-59
2021/06/21 12:35:00;;;;;;;7.85;3.22;;;27.70;68.70;;;;;;5032467;28;20048;-66
2021/06/21 12:37:44;;;;;;;5.78;3.40;;;27.70;68.90;;;;;;5032782;28;20150;-56
2021/06/21 12:40:28;;;;;;;8.13;3.25;;;27.80;69.30;;;;;;5033144;28;20032;-57
2021/06/21 12:43:13;;;;;;;9.13;3.33;;;28.00;68.00;;;;;;5037019;28;20412;-57
2021/06/21 12:45:57;;;;;;;6.45;3.35;;;28.00;67.20;;;;;;5052228;28;20063;-55
2021/06/21 12:48:43;;;;;;;7.20;3.20;;;28.10;67.30;;;;;;5051908;28;20083;-55
2021/06/21 12:51:28;;;;;;;9.90;3.88;;;28.00;66.50;;;;;;5049872;28;20522;-58
2021/06/21 12:54:21;;;;;;;5.75;3.15;;;28.10;67.50;;;;;;5032242;28;20421;-57
2021/06/21 12:57:08;;;;;;;4.72;3.00;;;28.10;66.20;;;;;;5031973;28;20519;-56
2021/06/21 12:59:53;;;;;;;6.65;3.30;;;28.20;66.50;;;;;;5032634;28;20036;-59
2021/06/21 13:02:38;;;;;;;5.07;3.17;;;28.20;66.10;;;;;;5032370;28;20036;-57
2021/06/21 13:05:22;;;;;;;7.32;3.20;;;28.20;66.30;;;;;;5031717;28;20037;-59
2021/06/21 13:08:06;;;;;;;7.38;3.30;;;28.30;65.70;;;;;;5032281;28;20099;-58
2021/06/21 13:10:50;;;;;;;6.32;3.10;;;28.40;66.60;;;;;;5032376;28;20057;-57
2021/06/21 13:13:39;;;;;;;4.57;2.78;;;28.60;65.40;;;;;;5031285;28;20400;-57
2021/06/21 13:16:29;;;;;;;4.75;3.00;;;28.60;65.90;;;;;;5030265;28;20083;-55
2021/06/21 13:19:16;;;;;;;4.53;2.97;;;28.40;66.70;;;;;;5032125;28;20060;-56
2021/06/21 13:22:00;;;;;;;5.30;3.17;;;28.50;66.90;;;;;;5031600;28;20562;-56
2021/06/21 13:24:44;;;;;;;12.60;3.97;;;28.30;67.10;;;;;;5030913;28;20471;-56
2021/06/21 13:27:30;;;;;;;12.02;3.65;;;28.30;67.00;;;;;;5027668;28;20121;-57
2021/06/21 13:30:25;;;;;;;5.32;3.10;;;28.80;66.20;;;;;;5032138;28;20227;-58
2021/06/21 13:33:09;;;;;;;7.28;3.13;;;29.00;65.20;;;;;;5020275;28;20045;-56
2021/06/21 13:35:53;;;;;;;;;;;28.70;65.40;;;;;;5031499;28;20396;-57
2021/06/21 13:38:38;;;;;;;6.53;3.03;;;28.70;65.50;;;;;;5019437;28;19970;-56
2021/06/21 13:41:24;;;;;;;6.78;2.97;;;28.70;65.70;;;;;;5032442;28;20523;-56
2021/06/21 13:44:10;;;;;;;6.15;3.95;;;28.40;66.30;;;;;;5030806;28;20407;-58
2021/06/21 13:46:55;;;;;;;9.85;3.38;;;28.60;66.70;;;;;;5031991;28;20056;-57
2021/06/21 13:49:57;;;;;;;5.97;2.90;;;28.70;66.20;;;;;;5032056;28;20100;-57
2021/06/21 13:52:47;;;;;;;7.95;3.50;;;29.00;64.10;;;;;;5031766;28;20041;-58
2021/06/21 13:55:44;;;;;;;6.70;3.83;;;28.80;63.70;;;;;;5031001;28;20071;-57
2021/06/21 13:58:32;;;;;;;7.25;4.60;;;28.70;63.30;;;;;;5031818;28;20029;-56
2021/06/21 14:01:19;;;;;;;8.57;3.47;;;28.80;63.10;;;;;;5035565;28;20033;-57
2021/06/21 14:04:04;;;;;;;8.10;3.40;;;29.00;62.50;;;;;;5035495;28;20033;-60
2021/06/21 14:06:48;;;;;;;5.85;3.17;;;29.20;62.50;;;;;;5035202;28;20060;-56
2021/06/21 14:09:32;;;;;;;7.82;3.30;;;29.00;62.80;;;;;;5036242;28;20036;-56
2021/06/21 14:12:16;;;;;;;6.28;3.13;;;28.90;62.30;;;;;;5035317;28;20489;-54
2021/06/21 14:15:00;;;;;;;6.75;3.33;;;28.50;63.30;;;;;;5036603;28;20036;-58
2021/06/21 14:17:45;;;;;;;;;;;28.90;62.90;;;;;;5037631;28;20029;-58
2021/06/21 14:20:29;;;;;;;4.38;2.80;;;29.00;63.10;;;;;;5035173;28;20400;-58
2021/06/21 14:23:13;;;;;;;4.65;2.90;;;29.10;62.30;;;;;;5035129;28;20117;-59
2021/06/21 14:25:58;;;;;;;4.38;2.65;;;28.80;61.80;;;;;;5035541;28;20125;-59
2021/06/21 14:28:42;;;;;;;8.35;2.88;;;28.80;62.90;;;;;;5033759;28;20084;-58